Moretown, VT (05660)

00:36 EST le 18 décembre 2014 (GMT -0500)
Center Fayston Rd | Change Station
CLOSE
Current Station
Stations météorologiques personnelles
Location: Moretown, VT
Altitude: 1381 ft
Stations météo à proximité

Alt. 1381 ft 44.22 °N, 72.82 °W | Updated 32 seconds ago

Couvert
Couvert
34.7 ° F
Paraît 32 ° F
N
3.1
Vent Variable Vent de OSO
Gusts 7.0 mph

Aujourd'hui
Haut(e) -- | Bas -- ° F
--% Risque de précip.
Hier
Haut(e) -- | Bas -- ° F
Precip. -- pouce
7:21 AM 4:13 PM
Lune descendante, 17% visible
Pression 29.73 pouce
Visibilité 10.0 Miles terrestres
Nuages Nuages épars 2700 ft
Nuages épars 3200 ft
Couvert 4700 ft
Refroidissement éolien 32 ° F
Point de rosée 32 ° F
Humidité 92%
Précipitations 0.03 pouce
Profondeur de la couche neigeuse Non disponible.
UV 0 sur 12
Pollen .10 sur 12
Qualité de l'air Non disponible.
Flu Activity Non disponible.
SPECI KMPV 180524Z AUTO 31005KT 10SM SCT027 SCT032 OVC047 01/00 A2973 RMK AO2 T00110000

More Conditions Fewer Conditions

Pression 29.73 pouce
Visibilité 10.0 Miles terrestres
Nuages Nuages épars 2700 ft
Nuages épars 3200 ft
Couvert 4700 ft
Refroidissement éolien 32 ° F
Point de rosée 32 ° F
Humidité 92%
Précipitations 0.03 pouce
Profondeur de la couche neigeuse Non disponible.
UV 0 sur 12
Pollen .10 sur 12
Qualité de l'air Non disponible.
Flu Activity Non disponible.
SPECI KMPV 180524Z AUTO 31005KT 10SM SCT027 SCT032 OVC047 01/00 A2973 RMK AO2 T00110000

More Conditions Fewer Conditions

10-Day Weather Forecast

Almanac

Astronomie

Dec. 18, 2014 Lever Coucher
Temps réel
Crépuscule civil
Crépuscule nautique
Crépuscule astronomique
Lune
Durée de lumière visible
Longueur du jour
Tomorrow will be .
, % of the Moon is Illuminated

Extrêmes aujourd'hui

State Highs State Lows

Community

WunderPhotos

Upload Photos

1,778,895 Photos téléchargées !

WunderBlogs® & News

Nearby

Qualité de l'air

  Qualité de l'air Indice de la qualité de l'air Polluant
Not available.

Épaisseur de neige

Station Depth Altitude

Activité sismique

Ville Distance Mag. Time & Date
Minimum magnitude displayed is 2.5.

Températures des eaux côtières

Lieu Température

Stations météo à proximité